sensor_id;sensor_type;location;lat;lon;timestamp;P1;durP1;ratioP1;P2;durP2;ratioP2
18172;SDS011;9211;48.818;9.312;2022-08-19T00:00:17;15.45;;;10.90;;
18172;SDS011;9211;48.818;9.312;2022-08-19T00:02:44;16.23;;;10.63;;
18172;SDS011;9211;48.818;9.312;2022-08-19T00:05:13;15.23;;;10.90;;
18172;SDS011;9211;48.818;9.312;2022-08-19T00:07:41;16.50;;;11.33;;
18172;SDS011;9211;48.818;9.312;2022-08-19T00:10:09;14.27;;;10.57;;
18172;SDS011;9211;48.818;9.312;2022-08-19T00:12:38;17.17;;;11.60;;
18172;SDS011;9211;48.818;9.312;2022-08-19T00:15:06;16.55;;;11.27;;
18172;SDS011;9211;48.818;9.312;2022-08-19T00:17:36;16.20;;;11.65;;
18172;SDS011;9211;48.818;9.312;2022-08-19T00:20:04;15.18;;;11.20;;
18172;SDS011;9211;48.818;9.312;2022-08-19T00:22:32;18.33;;;11.95;;
18172;SDS011;9211;48.818;9.312;2022-08-19T00:24:59;16.98;;;11.23;;
18172;SDS011;9211;48.818;9.312;2022-08-19T00:27:26;17.00;;;11.65;;
18172;SDS011;9211;48.818;9.312;2022-08-19T00:29:55;17.27;;;11.70;;
18172;SDS011;9211;48.818;9.312;2022-08-19T00:32:23;17.90;;;12.00;;
18172;SDS011;9211;48.818;9.312;2022-08-19T00:34:51;18.80;;;11.40;;
18172;SDS011;9211;48.818;9.312;2022-08-19T00:37:18;16.25;;;11.35;;
18172;SDS011;9211;48.818;9.312;2022-08-19T00:39:47;18.38;;;11.30;;
18172;SDS011;9211;48.818;9.312;2022-08-19T00:42:16;17.13;;;11.37;;
18172;SDS011;9211;48.818;9.312;2022-08-19T00:44:45;17.70;;;12.10;;
18172;SDS011;9211;48.818;9.312;2022-08-19T00:47:14;15.50;;;11.13;;
18172;SDS011;9211;48.818;9.312;2022-08-19T00:49:41;17.02;;;11.73;;
18172;SDS011;9211;48.818;9.312;2022-08-19T00:52:16;18.48;;;11.68;;
18172;SDS011;9211;48.818;9.312;2022-08-19T00:54:46;18.77;;;11.52;;
18172;SDS011;9211;48.818;9.312;2022-08-19T00:57:14;17.65;;;12.30;;
18172;SDS011;9211;48.818;9.312;2022-08-19T00:59:44;17.48;;;11.20;;
18172;SDS011;9211;48.818;9.312;2022-08-19T01:02:15;18.65;;;11.65;;
18172;SDS011;9211;48.818;9.312;2022-08-19T01:04:43;16.90;;;11.52;;
18172;SDS011;9211;48.818;9.312;2022-08-19T01:07:10;16.00;;;11.40;;
18172;SDS011;9211;48.818;9.312;2022-08-19T01:09:38;16.77;;;11.23;;
18172;SDS011;9211;48.818;9.312;2022-08-19T01:12:05;16.15;;;11.32;;
18172;SDS011;9211;48.818;9.312;2022-08-19T01:14:33;16.83;;;11.23;;
18172;SDS011;9211;48.818;9.312;2022-08-19T01:17:01;19.17;;;11.83;;
18172;SDS011;9211;48.818;9.312;2022-08-19T01:19:30;19.67;;;11.80;;
18172;SDS011;9211;48.818;9.312;2022-08-19T01:22:02;16.35;;;10.93;;
18172;SDS011;9211;48.818;9.312;2022-08-19T01:24:35;16.93;;;11.07;;
18172;SDS011;9211;48.818;9.312;2022-08-19T01:27:03;17.55;;;12.02;;
18172;SDS011;9211;48.818;9.312;2022-08-19T01:29:31;15.90;;;11.45;;
18172;SDS011;9211;48.818;9.312;2022-08-19T01:31:58;19.08;;;11.57;;
18172;SDS011;9211;48.818;9.312;2022-08-19T01:34:26;18.23;;;11.48;;
18172;SDS011;9211;48.818;9.312;2022-08-19T01:36:53;17.05;;;11.52;;
18172;SDS011;9211;48.818;9.312;2022-08-19T01:39:21;18.60;;;11.73;;
18172;SDS011;9211;48.818;9.312;2022-08-19T01:41:51;19.10;;;12.15;;
18172;SDS011;9211;48.818;9.312;2022-08-19T01:44:19;17.15;;;11.73;;
18172;SDS011;9211;48.818;9.312;2022-08-19T01:46:49;17.43;;;11.57;;
18172;SDS011;9211;48.818;9.312;2022-08-19T01:49:17;18.08;;;11.13;;
18172;SDS011;9211;48.818;9.312;2022-08-19T01:51:46;18.48;;;11.60;;
18172;SDS011;9211;48.818;9.312;2022-08-19T01:54:14;20.02;;;12.35;;
18172;SDS011;9211;48.818;9.312;2022-08-19T01:56:43;17.27;;;11.88;;
18172;SDS011;9211;48.818;9.312;2022-08-19T01:59:12;19.40;;;12.57;;
18172;SDS011;9211;48.818;9.312;2022-08-19T02:01:42;16.80;;;11.55;;
18172;SDS011;9211;48.818;9.312;2022-08-19T02:04:09;19.42;;;12.40;;
18172;SDS011;9211;48.818;9.312;2022-08-19T02:06:36;18.77;;;12.43;;
18172;SDS011;9211;48.818;9.312;2022-08-19T02:09:05;18.48;;;12.27;;
18172;SDS011;9211;48.818;9.312;2022-08-19T02:11:33;18.90;;;12.27;;
18172;SDS011;9211;48.818;9.312;2022-08-19T02:14:03;20.17;;;12.15;;
18172;SDS011;9211;48.818;9.312;2022-08-19T02:16:33;19.33;;;12.80;;
18172;SDS011;9211;48.818;9.312;2022-08-19T02:19:01;19.35;;;12.40;;
18172;SDS011;9211;48.818;9.312;2022-08-19T02:21:29;20.35;;;13.15;;
18172;SDS011;9211;48.818;9.312;2022-08-19T02:23:57;21.48;;;12.98;;
18172;SDS011;9211;48.818;9.312;2022-08-19T02:26:24;21.33;;;13.53;;
18172;SDS011;9211;48.818;9.312;2022-08-19T02:28:52;17.87;;;12.40;;
18172;SDS011;9211;48.818;9.312;2022-08-19T02:31:21;22.17;;;13.68;;
18172;SDS011;9211;48.818;9.312;2022-08-19T02:33:51;19.40;;;12.88;;
18172;SDS011;9211;48.818;9.312;2022-08-19T02:36:18;21.13;;;12.52;;
18172;SDS011;9211;48.818;9.312;2022-08-19T02:38:45;20.95;;;13.70;;
18172;SDS011;9211;48.818;9.312;2022-08-19T02:41:14;21.30;;;13.30;;
18172;SDS011;9211;48.818;9.312;2022-08-19T02:43:43;22.38;;;13.75;;
18172;SDS011;9211;48.818;9.312;2022-08-19T02:46:12;21.23;;;13.70;;
18172;SDS011;9211;48.818;9.312;2022-08-19T02:48:46;22.98;;;13.88;;
18172;SDS011;9211;48.818;9.312;2022-08-19T02:51:16;22.40;;;14.38;;
18172;SDS011;9211;48.818;9.312;2022-08-19T02:53:45;23.08;;;14.27;;
18172;SDS011;9211;48.818;9.312;2022-08-19T02:56:12;22.53;;;14.47;;
18172;SDS011;9211;48.818;9.312;2022-08-19T02:58:40;22.80;;;14.43;;
18172;SDS011;9211;48.818;9.312;2022-08-19T03:01:08;25.08;;;14.70;;
18172;SDS011;9211;48.818;9.312;2022-08-19T03:03:36;23.10;;;14.85;;
18172;SDS011;9211;48.818;9.312;2022-08-19T03:06:04;26.50;;;15.10;;
18172;SDS011;9211;48.818;9.312;2022-08-19T03:08:34;25.67;;;15.27;;
18172;SDS011;9211;48.818;9.312;2022-08-19T03:11:02;23.83;;;15.40;;
18172;SDS011;9211;48.818;9.312;2022-08-19T03:13:30;24.83;;;15.53;;
18172;SDS011;9211;48.818;9.312;2022-08-19T03:15:58;26.10;;;15.77;;
18172;SDS011;9211;48.818;9.312;2022-08-19T03:18:25;24.20;;;15.63;;
18172;SDS011;9211;48.818;9.312;2022-08-19T03:20:52;26.67;;;16.57;;
18172;SDS011;9211;48.818;9.312;2022-08-19T03:23:21;25.42;;;16.10;;
18172;SDS011;9211;48.818;9.312;2022-08-19T03:25:51;24.55;;;15.65;;
18172;SDS011;9211;48.818;9.312;2022-08-19T03:28:19;25.30;;;15.77;;
18172;SDS011;9211;48.818;9.312;2022-08-19T03:30:56;25.67;;;15.48;;
18172;SDS011;9211;48.818;9.312;2022-08-19T03:33:24;26.23;;;16.17;;
18172;SDS011;9211;48.818;9.312;2022-08-19T03:36:03;26.43;;;16.00;;
18172;SDS011;9211;48.818;9.312;2022-08-19T03:38:35;25.77;;;16.05;;
18172;SDS011;9211;48.818;9.312;2022-08-19T03:41:07;25.42;;;16.30;;
18172;SDS011;9211;48.818;9.312;2022-08-19T03:43:35;25.40;;;16.35;;
18172;SDS011;9211;48.818;9.312;2022-08-19T03:46:05;26.43;;;15.67;;
18172;SDS011;9211;48.818;9.312;2022-08-19T03:48:34;27.65;;;16.48;;
18172;SDS011;9211;48.818;9.312;2022-08-19T03:51:02;23.77;;;15.52;;
18172;SDS011;9211;48.818;9.312;2022-08-19T03:53:29;26.73;;;16.27;;
18172;SDS011;9211;48.818;9.312;2022-08-19T03:55:57;27.05;;;16.77;;
18172;SDS011;9211;48.818;9.312;2022-08-19T03:58:27;26.53;;;16.53;;
18172;SDS011;9211;48.818;9.312;2022-08-19T04:00:55;28.60;;;17.50;;
18172;SDS011;9211;48.818;9.312;2022-08-19T04:03:23;27.55;;;17.17;;
18172;SDS011;9211;48.818;9.312;2022-08-19T04:05:50;26.97;;;16.57;;
18172;SDS011;9211;48.818;9.312;2022-08-19T04:08:17;26.23;;;16.85;;
18172;SDS011;9211;48.818;9.312;2022-08-19T04:10:45;27.37;;;17.47;;
18172;SDS011;9211;48.818;9.312;2022-08-19T04:13:13;27.00;;;17.10;;
18172;SDS011;9211;48.818;9.312;2022-08-19T04:15:42;29.73;;;18.25;;
18172;SDS011;9211;48.818;9.312;2022-08-19T04:18:11;26.65;;;16.33;;
18172;SDS011;9211;48.818;9.312;2022-08-19T04:20:40;27.15;;;17.08;;
18172;SDS011;9211;48.818;9.312;2022-08-19T04:23:08;26.00;;;16.70;;
18172;SDS011;9211;48.818;9.312;2022-08-19T04:25:36;29.27;;;18.40;;
18172;SDS011;9211;48.818;9.312;2022-08-19T04:28:04;30.85;;;18.80;;
18172;SDS011;9211;48.818;9.312;2022-08-19T04:30:36;26.90;;;17.27;;
18172;SDS011;9211;48.818;9.312;2022-08-19T04:33:06;26.67;;;17.77;;
18172;SDS011;9211;48.818;9.312;2022-08-19T04:35:37;28.30;;;17.98;;
18172;SDS011;9211;48.818;9.312;2022-08-19T04:38:05;28.30;;;18.13;;
18172;SDS011;9211;48.818;9.312;2022-08-19T04:40:33;28.75;;;18.23;;
18172;SDS011;9211;48.818;9.312;2022-08-19T04:43:17;28.90;;;18.13;;
18172;SDS011;9211;48.818;9.312;2022-08-19T04:45:44;29.20;;;18.02;;
18172;SDS011;9211;48.818;9.312;2022-08-19T04:48:13;26.63;;;17.42;;
18172;SDS011;9211;48.818;9.312;2022-08-19T04:50:41;29.20;;;18.80;;
18172;SDS011;9211;48.818;9.312;2022-08-19T04:53:09;29.77;;;17.50;;
18172;SDS011;9211;48.818;9.312;2022-08-19T04:55:40;31.75;;;18.35;;
18172;SDS011;9211;48.818;9.312;2022-08-19T04:58:08;27.98;;;17.73;;
18172;SDS011;9211;48.818;9.312;2022-08-19T05:00:37;29.30;;;18.10;;
18172;SDS011;9211;48.818;9.312;2022-08-19T05:03:05;29.70;;;18.10;;
18172;SDS011;9211;48.818;9.312;2022-08-19T05:05:33;31.45;;;19.10;;
18172;SDS011;9211;48.818;9.312;2022-08-19T05:08:04;28.75;;;18.05;;
18172;SDS011;9211;48.818;9.312;2022-08-19T05:10:34;26.90;;;17.25;;
18172;SDS011;9211;48.818;9.312;2022-08-19T05:13:02;27.70;;;17.40;;
18172;SDS011;9211;48.818;9.312;2022-08-19T05:15:29;29.87;;;18.20;;
18172;SDS011;9211;48.818;9.312;2022-08-19T05:17:57;27.17;;;18.35;;
18172;SDS011;9211;48.818;9.312;2022-08-19T05:20:42;28.75;;;18.52;;
18172;SDS011;9211;48.818;9.312;2022-08-19T05:23:27;27.25;;;17.88;;
18172;SDS011;9211;48.818;9.312;2022-08-19T05:25:53;26.50;;;17.77;;
18172;SDS011;9211;48.818;9.312;2022-08-19T05:28:21;27.38;;;17.70;;
18172;SDS011;9211;48.818;9.312;2022-08-19T05:30:48;28.50;;;17.33;;
18172;SDS011;9211;48.818;9.312;2022-08-19T05:33:16;26.75;;;16.83;;
18172;SDS011;9211;48.818;9.312;2022-08-19T05:35:44;27.50;;;17.60;;
18172;SDS011;9211;48.818;9.312;2022-08-19T05:38:13;29.88;;;19.15;;
18172;SDS011;9211;48.818;9.312;2022-08-19T05:40:40;26.38;;;17.70;;
18172;SDS011;9211;48.818;9.312;2022-08-19T05:43:11;28.98;;;18.27;;
18172;SDS011;9211;48.818;9.312;2022-08-19T05:45:41;28.73;;;18.52;;
18172;SDS011;9211;48.818;9.312;2022-08-19T05:48:09;26.53;;;17.80;;
18172;SDS011;9211;48.818;9.312;2022-08-19T05:50:36;26.73;;;17.83;;
18172;SDS011;9211;48.818;9.312;2022-08-19T05:53:06;29.23;;;17.85;;
18172;SDS011;9211;48.818;9.312;2022-08-19T05:55:33;28.05;;;18.27;;
18172;SDS011;9211;48.818;9.312;2022-08-19T05:58:02;26.80;;;18.20;;
18172;SDS011;9211;48.818;9.312;2022-08-19T06:00:29;28.30;;;18.27;;
18172;SDS011;9211;48.818;9.312;2022-08-19T06:02:56;29.75;;;18.70;;
18172;SDS011;9211;48.818;9.312;2022-08-19T06:05:24;27.42;;;17.80;;
18172;SDS011;9211;48.818;9.312;2022-08-19T06:07:51;30.88;;;19.00;;
18172;SDS011;9211;48.818;9.312;2022-08-19T06:10:20;29.77;;;19.45;;
18172;SDS011;9211;48.818;9.312;2022-08-19T06:12:48;30.15;;;18.58;;
18172;SDS011;9211;48.818;9.312;2022-08-19T06:15:15;30.30;;;19.40;;
18172;SDS011;9211;48.818;9.312;2022-08-19T06:17:42;28.33;;;18.80;;
18172;SDS011;9211;48.818;9.312;2022-08-19T06:20:11;27.98;;;18.58;;
18172;SDS011;9211;48.818;9.312;2022-08-19T06:22:39;30.52;;;19.13;;
18172;SDS011;9211;48.818;9.312;2022-08-19T06:25:08;29.10;;;18.83;;
18172;SDS011;9211;48.818;9.312;2022-08-19T06:27:36;29.67;;;19.38;;
18172;SDS011;9211;48.818;9.312;2022-08-19T06:30:04;29.88;;;19.52;;
18172;SDS011;9211;48.818;9.312;2022-08-19T06:32:32;29.85;;;18.98;;
18172;SDS011;9211;48.818;9.312;2022-08-19T06:34:59;35.08;;;19.73;;
18172;SDS011;9211;48.818;9.312;2022-08-19T06:37:26;30.92;;;20.08;;
18172;SDS011;9211;48.818;9.312;2022-08-19T06:39:53;27.65;;;18.40;;
18172;SDS011;9211;48.818;9.312;2022-08-19T06:42:20;30.43;;;19.23;;
18172;SDS011;9211;48.818;9.312;2022-08-19T06:44:49;32.00;;;20.27;;
18172;SDS011;9211;48.818;9.312;2022-08-19T06:47:17;32.05;;;20.52;;
18172;SDS011;9211;48.818;9.312;2022-08-19T06:49:45;31.08;;;20.27;;
18172;SDS011;9211;48.818;9.312;2022-08-19T06:52:12;28.63;;;19.65;;
18172;SDS011;9211;48.818;9.312;2022-08-19T06:54:40;35.13;;;20.85;;
18172;SDS011;9211;48.818;9.312;2022-08-19T06:57:08;28.77;;;18.65;;
18172;SDS011;9211;48.818;9.312;2022-08-19T06:59:40;28.73;;;19.25;;
18172;SDS011;9211;48.818;9.312;2022-08-19T07:02:08;29.30;;;18.40;;
18172;SDS011;9211;48.818;9.312;2022-08-19T07:04:36;30.70;;;19.55;;
18172;SDS011;9211;48.818;9.312;2022-08-19T07:07:04;31.40;;;19.27;;
18172;SDS011;9211;48.818;9.312;2022-08-19T07:09:34;31.20;;;19.10;;
18172;SDS011;9211;48.818;9.312;2022-08-19T07:12:03;27.92;;;19.02;;
18172;SDS011;9211;48.818;9.312;2022-08-19T07:14:31;30.77;;;19.50;;
18172;SDS011;9211;48.818;9.312;2022-08-19T07:17:00;27.85;;;18.38;;
18172;SDS011;9211;48.818;9.312;2022-08-19T07:19:31;32.45;;;20.42;;
18172;SDS011;9211;48.818;9.312;2022-08-19T07:22:00;32.33;;;20.30;;
18172;SDS011;9211;48.818;9.312;2022-08-19T07:24:29;29.80;;;19.60;;
18172;SDS011;9211;48.818;9.312;2022-08-19T07:26:57;29.67;;;18.70;;
18172;SDS011;9211;48.818;9.312;2022-08-19T07:29:27;31.42;;;19.35;;
18172;SDS011;9211;48.818;9.312;2022-08-19T07:31:55;27.80;;;18.80;;
18172;SDS011;9211;48.818;9.312;2022-08-19T07:34:24;28.85;;;19.42;;
18172;SDS011;9211;48.818;9.312;2022-08-19T07:36:53;30.48;;;19.63;;
18172;SDS011;9211;48.818;9.312;2022-08-19T07:39:21;27.98;;;18.17;;
18172;SDS011;9211;48.818;9.312;2022-08-19T07:41:50;28.33;;;18.70;;
18172;SDS011;9211;48.818;9.312;2022-08-19T07:44:19;29.73;;;19.27;;
18172;SDS011;9211;48.818;9.312;2022-08-19T07:46:47;31.27;;;18.73;;
18172;SDS011;9211;48.818;9.312;2022-08-19T07:49:16;30.15;;;18.80;;
18172;SDS011;9211;48.818;9.312;2022-08-19T07:51:44;29.73;;;19.47;;
18172;SDS011;9211;48.818;9.312;2022-08-19T07:54:13;30.40;;;19.27;;
18172;SDS011;9211;48.818;9.312;2022-08-19T07:56:40;31.13;;;18.92;;
18172;SDS011;9211;48.818;9.312;2022-08-19T07:59:07;28.52;;;18.17;;
18172;SDS011;9211;48.818;9.312;2022-08-19T08:01:35;31.25;;;18.38;;
18172;SDS011;9211;48.818;9.312;2022-08-19T08:04:05;27.63;;;18.30;;
18172;SDS011;9211;48.818;9.312;2022-08-19T08:06:50;27.83;;;17.67;;
18172;SDS011;9211;48.818;9.312;2022-08-19T08:09:37;28.00;;;18.02;;
18172;SDS011;9211;48.818;9.312;2022-08-19T08:12:08;27.35;;;17.50;;
18172;SDS011;9211;48.818;9.312;2022-08-19T08:14:39;25.88;;;17.75;;
18172;SDS011;9211;48.818;9.312;2022-08-19T08:17:09;25.42;;;16.88;;
18172;SDS011;9211;48.818;9.312;2022-08-19T08:19:38;28.73;;;17.60;;
18172;SDS011;9211;48.818;9.312;2022-08-19T08:22:06;27.73;;;17.90;;
18172;SDS011;9211;48.818;9.312;2022-08-19T08:24:56;30.27;;;17.40;;
18172;SDS011;9211;48.818;9.312;2022-08-19T08:27:26;29.00;;;16.75;;
18172;SDS011;9211;48.818;9.312;2022-08-19T08:29:56;27.80;;;18.15;;
18172;SDS011;9211;48.818;9.312;2022-08-19T08:32:23;25.77;;;17.40;;
18172;SDS011;9211;48.818;9.312;2022-08-19T08:34:50;24.95;;;16.55;;
18172;SDS011;9211;48.818;9.312;2022-08-19T08:37:18;26.50;;;16.45;;
18172;SDS011;9211;48.818;9.312;2022-08-19T08:39:47;25.35;;;16.50;;
18172;SDS011;9211;48.818;9.312;2022-08-19T08:42:19;26.02;;;16.42;;
18172;SDS011;9211;48.818;9.312;2022-08-19T08:44:52;23.83;;;15.63;;
18172;SDS011;9211;48.818;9.312;2022-08-19T08:47:26;24.50;;;16.00;;
18172;SDS011;9211;48.818;9.312;2022-08-19T08:49:59;23.33;;;15.80;;
18172;SDS011;9211;48.818;9.312;2022-08-19T08:52:31;25.85;;;16.70;;
18172;SDS011;9211;48.818;9.312;2022-08-19T08:55:03;27.10;;;16.50;;
18172;SDS011;9211;48.818;9.312;2022-08-19T08:57:36;23.30;;;15.43;;
18172;SDS011;9211;48.818;9.312;2022-08-19T09:00:07;22.13;;;15.07;;
18172;SDS011;9211;48.818;9.312;2022-08-19T09:02:37;25.83;;;16.02;;
18172;SDS011;9211;48.818;9.312;2022-08-19T09:05:05;23.25;;;15.35;;
18172;SDS011;9211;48.818;9.312;2022-08-19T09:07:38;23.87;;;16.17;;
18172;SDS011;9211;48.818;9.312;2022-08-19T09:10:22;24.75;;;16.50;;
18172;SDS011;9211;48.818;9.312;2022-08-19T09:12:58;24.42;;;16.38;;
18172;SDS011;9211;48.818;9.312;2022-08-19T09:15:32;28.27;;;16.35;;
18172;SDS011;9211;48.818;9.312;2022-08-19T09:18:03;26.05;;;16.27;;
18172;SDS011;9211;48.818;9.312;2022-08-19T09:20:31;22.85;;;15.50;;
18172;SDS011;9211;48.818;9.312;2022-08-19T09:22:58;26.42;;;16.77;;
18172;SDS011;9211;48.818;9.312;2022-08-19T09:25:25;23.70;;;15.90;;
18172;SDS011;9211;48.818;9.312;2022-08-19T09:27:53;26.73;;;16.38;;
18172;SDS011;9211;48.818;9.312;2022-08-19T09:30:24;25.53;;;16.33;;
18172;SDS011;9211;48.818;9.312;2022-08-19T09:32:52;26.88;;;16.42;;
18172;SDS011;9211;48.818;9.312;2022-08-19T09:35:20;23.27;;;15.57;;
18172;SDS011;9211;48.818;9.312;2022-08-19T09:37:48;25.70;;;16.75;;
18172;SDS011;9211;48.818;9.312;2022-08-19T09:40:16;23.65;;;16.38;;
18172;SDS011;9211;48.818;9.312;2022-08-19T09:42:43;25.75;;;16.10;;
18172;SDS011;9211;48.818;9.312;2022-08-19T09:45:13;26.65;;;17.13;;
18172;SDS011;9211;48.818;9.312;2022-08-19T09:47:42;27.63;;;17.58;;
18172;SDS011;9211;48.818;9.312;2022-08-19T09:50:11;28.60;;;17.67;;
18172;SDS011;9211;48.818;9.312;2022-08-19T09:52:38;26.67;;;17.63;;
18172;SDS011;9211;48.818;9.312;2022-08-19T09:55:08;26.80;;;17.25;;
18172;SDS011;9211;48.818;9.312;2022-08-19T09:57:36;27.05;;;17.30;;
18172;SDS011;9211;48.818;9.312;2022-08-19T10:00:04;32.65;;;17.98;;
18172;SDS011;9211;48.818;9.312;2022-08-19T10:02:34;31.10;;;17.83;;
18172;SDS011;9211;48.818;9.312;2022-08-19T10:05:03;27.15;;;17.65;;
18172;SDS011;9211;48.818;9.312;2022-08-19T10:07:48;30.58;;;18.42;;
18172;SDS011;9211;48.818;9.312;2022-08-19T10:10:15;28.90;;;18.50;;
18172;SDS011;9211;48.818;9.312;2022-08-19T10:12:43;30.45;;;17.90;;
18172;SDS011;9211;48.818;9.312;2022-08-19T10:15:12;32.88;;;19.63;;
18172;SDS011;9211;48.818;9.312;2022-08-19T10:17:40;29.48;;;19.58;;
18172;SDS011;9211;48.818;9.312;2022-08-19T10:20:09;29.92;;;19.85;;
18172;SDS011;9211;48.818;9.312;2022-08-19T10:22:36;29.92;;;18.52;;
18172;SDS011;9211;48.818;9.312;2022-08-19T10:25:04;31.80;;;19.38;;
18172;SDS011;9211;48.818;9.312;2022-08-19T10:27:32;36.63;;;20.97;;
18172;SDS011;9211;48.818;9.312;2022-08-19T10:29:59;36.10;;;20.88;;
18172;SDS011;9211;48.818;9.312;2022-08-19T10:32:26;37.80;;;20.83;;
18172;SDS011;9211;48.818;9.312;2022-08-19T10:34:54;39.13;;;21.45;;
18172;SDS011;9211;48.818;9.312;2022-08-19T10:37:23;35.80;;;20.40;;
18172;SDS011;9211;48.818;9.312;2022-08-19T10:39:50;36.28;;;21.20;;
18172;SDS011;9211;48.818;9.312;2022-08-19T10:42:17;33.58;;;20.50;;
18172;SDS011;9211;48.818;9.312;2022-08-19T10:44:45;36.08;;;20.92;;
18172;SDS011;9211;48.818;9.312;2022-08-19T10:47:13;36.83;;;21.13;;
18172;SDS011;9211;48.818;9.312;2022-08-19T10:49:40;35.80;;;21.90;;
18172;SDS011;9211;48.818;9.312;2022-08-19T10:52:21;34.22;;;20.60;;
18172;SDS011;9211;48.818;9.312;2022-08-19T10:54:59;32.47;;;20.25;;
18172;SDS011;9211;48.818;9.312;2022-08-19T10:57:44;38.20;;;21.10;;
18172;SDS011;9211;48.818;9.312;2022-08-19T11:00:11;38.65;;;21.10;;
18172;SDS011;9211;48.818;9.312;2022-08-19T11:02:39;41.85;;;21.10;;
18172;SDS011;9211;48.818;9.312;2022-08-19T11:05:07;33.78;;;20.63;;
18172;SDS011;9211;48.818;9.312;2022-08-19T11:07:37;33.50;;;19.93;;
18172;SDS011;9211;48.818;9.312;2022-08-19T11:10:05;34.70;;;21.25;;
18172;SDS011;9211;48.818;9.312;2022-08-19T11:12:32;36.78;;;21.40;;
18172;SDS011;9211;48.818;9.312;2022-08-19T11:14:59;32.40;;;19.95;;
18172;SDS011;9211;48.818;9.312;2022-08-19T11:17:27;32.22;;;19.85;;
18172;SDS011;9211;48.818;9.312;2022-08-19T11:19:54;30.33;;;19.42;;
18172;SDS011;9211;48.818;9.312;2022-08-19T11:22:21;33.57;;;20.73;;
18172;SDS011;9211;48.818;9.312;2022-08-19T11:24:50;33.17;;;20.10;;
18172;SDS011;9211;48.818;9.312;2022-08-19T11:27:17;32.60;;;20.02;;
18172;SDS011;9211;48.818;9.312;2022-08-19T11:29:44;35.47;;;20.52;;
18172;SDS011;9211;48.818;9.312;2022-08-19T11:32:11;29.00;;;18.33;;
18172;SDS011;9211;48.818;9.312;2022-08-19T11:34:39;27.88;;;17.63;;
18172;SDS011;9211;48.818;9.312;2022-08-19T11:37:07;31.83;;;19.75;;
18172;SDS011;9211;48.818;9.312;2022-08-19T11:39:34;31.88;;;18.33;;
18172;SDS011;9211;48.818;9.312;2022-08-19T11:42:04;32.25;;;19.92;;
18172;SDS011;9211;48.818;9.312;2022-08-19T11:44:53;30.37;;;19.73;;
18172;SDS011;9211;48.818;9.312;2022-08-19T11:47:20;30.25;;;18.52;;
18172;SDS011;9211;48.818;9.312;2022-08-19T11:49:48;31.37;;;18.83;;
18172;SDS011;9211;48.818;9.312;2022-08-19T11:52:15;26.73;;;16.65;;
18172;SDS011;9211;48.818;9.312;2022-08-19T11:54:42;27.80;;;17.73;;
18172;SDS011;9211;48.818;9.312;2022-08-19T11:57:10;27.38;;;17.30;;
18172;SDS011;9211;48.818;9.312;2022-08-19T11:59:39;30.27;;;18.58;;
18172;SDS011;9211;48.818;9.312;2022-08-19T12:02:06;28.13;;;18.48;;
18172;SDS011;9211;48.818;9.312;2022-08-19T12:04:34;26.60;;;17.38;;
18172;SDS011;9211;48.818;9.312;2022-08-19T12:07:01;29.42;;;18.98;;
18172;SDS011;9211;48.818;9.312;2022-08-19T12:09:28;27.63;;;17.98;;
18172;SDS011;9211;48.818;9.312;2022-08-19T12:11:56;23.42;;;15.50;;
18172;SDS011;9211;48.818;9.312;2022-08-19T12:14:25;32.92;;;19.45;;
18172;SDS011;9211;48.818;9.312;2022-08-19T12:16:53;30.73;;;18.70;;
18172;SDS011;9211;48.818;9.312;2022-08-19T12:19:20;27.98;;;17.58;;
18172;SDS011;9211;48.818;9.312;2022-08-19T12:21:47;26.25;;;18.65;;
18172;SDS011;9211;48.818;9.312;2022-08-19T12:24:13;30.10;;;18.42;;
18172;SDS011;9211;48.818;9.312;2022-08-19T12:26:40;23.08;;;16.33;;
18172;SDS011;9211;48.818;9.312;2022-08-19T12:29:08;25.17;;;16.52;;
18172;SDS011;9211;48.818;9.312;2022-08-19T12:31:36;23.87;;;15.57;;
18172;SDS011;9211;48.818;9.312;2022-08-19T12:34:03;23.33;;;15.77;;
18172;SDS011;9211;48.818;9.312;2022-08-19T12:36:30;24.60;;;16.20;;
18172;SDS011;9211;48.818;9.312;2022-08-19T12:38:58;26.20;;;17.85;;
18172;SDS011;9211;48.818;9.312;2022-08-19T12:41:25;25.50;;;17.10;;
18172;SDS011;9211;48.818;9.312;2022-08-19T12:43:52;28.58;;;16.40;;
18172;SDS011;9211;48.818;9.312;2022-08-19T12:46:19;27.75;;;17.73;;
18172;SDS011;9211;48.818;9.312;2022-08-19T12:48:48;25.92;;;17.02;;
18172;SDS011;9211;48.818;9.312;2022-08-19T12:51:17;26.63;;;17.37;;
18172;SDS011;9211;48.818;9.312;2022-08-19T12:53:45;27.63;;;18.73;;
18172;SDS011;9211;48.818;9.312;2022-08-19T12:56:12;25.00;;;17.05;;
18172;SDS011;9211;48.818;9.312;2022-08-19T12:58:40;29.00;;;19.08;;
18172;SDS011;9211;48.818;9.312;2022-08-19T13:01:08;29.33;;;19.25;;
18172;SDS011;9211;48.818;9.312;2022-08-19T13:03:37;26.25;;;18.17;;
18172;SDS011;9211;48.818;9.312;2022-08-19T13:06:06;27.52;;;17.40;;
18172;SDS011;9211;48.818;9.312;2022-08-19T13:08:35;26.85;;;18.10;;
18172;SDS011;9211;48.818;9.312;2022-08-19T13:11:07;27.77;;;18.47;;
18172;SDS011;9211;48.818;9.312;2022-08-19T13:13:36;23.83;;;17.42;;
18172;SDS011;9211;48.818;9.312;2022-08-19T13:16:06;26.27;;;18.23;;
18172;SDS011;9211;48.818;9.312;2022-08-19T13:18:33;26.08;;;17.55;;
18172;SDS011;9211;48.818;9.312;2022-08-19T13:21:01;27.98;;;19.05;;
18172;SDS011;9211;48.818;9.312;2022-08-19T13:23:31;25.90;;;17.60;;
18172;SDS011;9211;48.818;9.312;2022-08-19T13:25:58;29.30;;;18.58;;
18172;SDS011;9211;48.818;9.312;2022-08-19T13:28:27;28.02;;;17.52;;
18172;SDS011;9211;48.818;9.312;2022-08-19T13:31:15;28.95;;;19.27;;
18172;SDS011;9211;48.818;9.312;2022-08-19T13:34:00;29.75;;;18.60;;
18172;SDS011;9211;48.818;9.312;2022-08-19T13:36:27;29.90;;;18.52;;
18172;SDS011;9211;48.818;9.312;2022-08-19T13:38:55;31.33;;;18.75;;
18172;SDS011;9211;48.818;9.312;2022-08-19T13:41:23;30.98;;;19.45;;
18172;SDS011;9211;48.818;9.312;2022-08-19T13:43:50;33.22;;;19.33;;
18172;SDS011;9211;48.818;9.312;2022-08-19T13:46:17;26.10;;;17.27;;
18172;SDS011;9211;48.818;9.312;2022-08-19T13:48:44;24.80;;;16.40;;
18172;SDS011;9211;48.818;9.312;2022-08-19T13:51:12;26.38;;;17.90;;
18172;SDS011;9211;48.818;9.312;2022-08-19T13:53:40;28.90;;;17.50;;
18172;SDS011;9211;48.818;9.312;2022-08-19T13:56:10;26.10;;;17.27;;
18172;SDS011;9211;48.818;9.312;2022-08-19T13:58:41;27.85;;;18.92;;
18172;SDS011;9211;48.818;9.312;2022-08-19T14:01:08;30.58;;;18.75;;
18172;SDS011;9211;48.818;9.312;2022-08-19T14:03:36;30.27;;;18.75;;
18172;SDS011;9211;48.818;9.312;2022-08-19T14:06:04;29.13;;;19.63;;
18172;SDS011;9211;48.818;9.312;2022-08-19T14:08:31;33.78;;;20.40;;
18172;SDS011;9211;48.818;9.312;2022-08-19T14:10:58;32.67;;;20.52;;
18172;SDS011;9211;48.818;9.312;2022-08-19T14:13:27;32.17;;;20.10;;
18172;SDS011;9211;48.818;9.312;2022-08-19T14:15:54;32.20;;;20.00;;
18172;SDS011;9211;48.818;9.312;2022-08-19T14:18:21;30.40;;;20.37;;
18172;SDS011;9211;48.818;9.312;2022-08-19T14:20:50;31.58;;;20.00;;
18172;SDS011;9211;48.818;9.312;2022-08-19T14:23:17;31.08;;;20.20;;
18172;SDS011;9211;48.818;9.312;2022-08-19T14:25:45;30.67;;;19.63;;
18172;SDS011;9211;48.818;9.312;2022-08-19T14:28:12;30.50;;;20.23;;
18172;SDS011;9211;48.818;9.312;2022-08-19T14:30:41;29.67;;;18.02;;
18172;SDS011;9211;48.818;9.312;2022-08-19T14:33:09;27.15;;;18.63;;
18172;SDS011;9211;48.818;9.312;2022-08-19T14:35:37;27.75;;;19.30;;
18172;SDS011;9211;48.818;9.312;2022-08-19T14:38:14;28.02;;;19.02;;
18172;SDS011;9211;48.818;9.312;2022-08-19T14:40:42;28.88;;;19.40;;
18172;SDS011;9211;48.818;9.312;2022-08-19T14:43:11;29.00;;;19.45;;